KLSF/LSF METAR and TAF weather

Enter ICAO airport designator
Station Type Date Time Source
KLSF METAR 2021/10/22 17:56 UTC NOAA

KLSF 221756Z AUTO 27003KT 10SM CLR 26/09 A3002 RMK AO2 SLP169 T02640093 10264 20167 58016 $


Station Type Date Time Source
KLSF Decoded METAR 2021/10/22 17:56 UTC NOAA

Fort Benning, GA, United States (KLSF) 32-20N 084-50W 130M
Oct 22, 2021 - 01:56 PM EDT / 2021.10.22 1756 UTC
Wind: from the W (270 degrees) at 3 MPH (3 KT):0
Visibility: 10 mile(s):0
Sky conditions: clear
Temperature: 79.5 F (26.4 C)
Dew Point: 48.7 F (9.3 C)
Relative Humidity: 34%
Pressure (altimeter): 30.02 in. Hg (1016 hPa)
Pressure tendency: 0.05 inches (1.6 hPa) lower than three hours ago
ob: KLSF 221756Z AUTO 27003KT 10SM CLR 26/09 A3002 RMK AO2 SLP169 T02640093 10264 20167 58016
cycle: 18

Station Type Date Time Source
KLSF TAF 2021/10/22 13:22 UTC NOAA

TAF KLSF 221305Z 2213/2319 30007KT 0800 FG OVC002 QNH3005INS
TEMPO 2213/2214 1600 BR BKN006
BECMG 2214/2215 30009KT 9999 NSW SKC QNH2997INS
TEMPO 2216/2221 30010G15KT
BECMG 2221/2222 30003KT 9999 SKC QNH2997INS
BECMG 2313/2314 35005KT 9999 SKC QNH3001INS TX28/2221Z TN08/2312Z

Example: see airport list